createdAt,value
2022-10-26T00:00:10.840Z,96847.34
2022-10-26T00:03:03.699Z,96846.64
2022-10-26T00:05:35.578Z,96851.69
2022-10-26T00:08:06.686Z,96850.66
2022-10-26T00:10:39.185Z,96848.34
2022-10-26T00:13:12.811Z,96848.98
2022-10-26T00:15:45.033Z,96852.23
2022-10-26T00:18:15.262Z,96852.13
2022-10-26T00:20:45.217Z,96855.40
2022-10-26T00:23:15.257Z,96855.54
2022-10-26T00:25:45.924Z,96853.07
2022-10-26T00:28:15.823Z,96857.20
2022-10-26T00:30:45.866Z,96860.11
2022-10-26T00:33:15.786Z,96858.88
2022-10-26T00:35:49.444Z,96858.94
2022-10-26T00:38:20.858Z,96863.96
2022-10-26T00:40:51.109Z,96863.36
2022-10-26T00:43:24.564Z,96864.95
2022-10-26T00:45:57.850Z,96860.84
2022-10-26T00:48:36.407Z,96859.59
2022-10-26T00:51:16.352Z,96860.80
2022-10-26T00:53:46.293Z,96853.25
2022-10-26T00:56:16.963Z,96857.19
2022-10-26T00:58:48.499Z,96854.89
2022-10-26T01:01:19.026Z,96856.86
2022-10-26T01:03:49.025Z,96859.02
2022-10-26T01:06:17.876Z,96854.69
2022-10-26T01:08:50.140Z,96857.70
2022-10-26T01:11:20.847Z,96855.02
2022-10-26T01:13:53.146Z,96855.40
2022-10-26T01:16:50.850Z,96855.62
2022-10-26T01:19:53.422Z,96855.11
2022-10-26T01:22:30.703Z,96854.46
2022-10-26T01:25:27.931Z,96850.36
2022-10-26T01:27:58.275Z,96841.33
2022-10-26T01:30:27.042Z,96845.91
2022-10-26T01:33:15.081Z,96842.25
2022-10-26T01:35:44.752Z,96848.48
2022-10-26T01:38:39.037Z,96852.42
2022-10-26T01:41:46.310Z,96858.98
2022-10-26T01:44:23.926Z,96861.44
2022-10-26T01:46:56.146Z,96862.46
2022-10-26T01:49:33.675Z,96868.59
2022-10-26T01:52:06.133Z,96866.91
2022-10-26T01:57:19.587Z,96868.23
2022-10-26T02:00:08.873Z,96866.09
2022-10-26T02:02:42.817Z,96872.27
2022-10-26T02:05:34.268Z,96871.65
2022-10-26T02:08:32.759Z,96870.60
2022-10-26T02:11:22.586Z,96872.19
2022-10-26T02:14:22.652Z,96872.64
2022-10-26T02:17:03.462Z,96871.27
2022-10-26T02:19:36.986Z,96875.06
2022-10-26T02:22:18.406Z,96876.98
2022-10-26T02:24:51.796Z,96876.53
2022-10-26T02:27:26.774Z,96875.50
2022-10-26T02:29:59.182Z,96877.16
2022-10-26T02:32:32.959Z,96877.66
2022-10-26T02:35:05.777Z,96876.92
2022-10-26T02:37:39.399Z,96881.79
2022-10-26T02:40:14.749Z,96886.06
2022-10-26T02:42:46.503Z,96887.05
2022-10-26T02:45:27.201Z,96887.27
2022-10-26T02:47:58.189Z,96887.77
2022-10-26T02:51:02.982Z,96889.54
2022-10-26T02:53:42.642Z,96892.20
2022-10-26T02:56:31.908Z,96894.59
2022-10-26T02:59:07.065Z,96896.21
2022-10-26T03:01:37.766Z,96901.54
2022-10-26T03:04:07.447Z,96903.41
2022-10-26T03:06:37.693Z,96900.10
2022-10-26T03:09:08.929Z,96903.61
2022-10-26T03:11:40.385Z,96908.21
2022-10-26T03:14:12.142Z,96909.31
2022-10-26T03:16:44.819Z,96915.05
2022-10-26T03:19:16.372Z,96916.45
2022-10-26T03:21:46.992Z,96918.29
2022-10-26T03:24:18.231Z,96921.42
2022-10-26T03:26:49.893Z,96923.48
2022-10-26T03:29:21.775Z,96927.73
2022-10-26T03:31:54.642Z,96930.59
2022-10-26T03:34:24.701Z,96939.59
2022-10-26T03:36:54.604Z,96939.79
2022-10-26T03:39:25.127Z,96942.20
2022-10-26T03:41:56.397Z,96942.48
2022-10-26T03:44:26.447Z,96944.63
2022-10-26T03:46:56.838Z,96945.48
2022-10-26T03:49:26.244Z,96942.70
2022-10-26T03:51:55.897Z,96939.84
2022-10-26T03:54:26.072Z,96939.44
2022-10-26T03:56:57.107Z,96936.38
2022-10-26T03:59:28.220Z,96936.48
2022-10-26T04:01:58.264Z,96933.13
2022-10-26T04:04:28.113Z,96933.84
2022-10-26T04:06:58.501Z,96934.41
2022-10-26T04:09:28.768Z,96934.15
2022-10-26T04:11:58.643Z,96935.39
2022-10-26T04:14:28.842Z,96936.84
2022-10-26T04:16:58.973Z,96938.14
2022-10-26T04:19:29.253Z,96940.81
2022-10-26T04:21:59.056Z,96941.52
2022-10-26T04:24:29.339Z,96943.80
2022-10-26T04:26:59.435Z,96950.66
2022-10-26T04:29:29.918Z,96949.07
2022-10-26T04:31:58.603Z,96957.09
2022-10-26T04:34:30.549Z,96960.20
2022-10-26T04:37:00.772Z,96966.97
2022-10-26T04:39:30.964Z,96968.42
2022-10-26T04:41:59.695Z,96972.06
2022-10-26T04:44:29.920Z,96979.45
2022-10-26T04:47:00.091Z,96981.80
2022-10-26T04:49:30.531Z,96985.43
2022-10-26T04:52:00.483Z,96983.52
2022-10-26T04:54:30.811Z,96982.73
2022-10-26T04:57:01.049Z,96989.40
2022-10-26T04:59:31.059Z,96993.92
2022-10-26T05:01:59.795Z,96992.34
2022-10-26T05:04:30.080Z,96991.23
2022-10-26T05:07:00.619Z,96992.91
2022-10-26T05:09:30.647Z,96999.51
2022-10-26T05:12:00.880Z,97003.98
2022-10-26T05:14:30.731Z,97008.80
2022-10-26T05:17:00.918Z,97011.80
2022-10-26T05:19:31.234Z,97009.62
2022-10-26T05:22:01.085Z,97011.66
2022-10-26T05:24:31.018Z,97011.66
2022-10-26T05:27:01.648Z,97019.23
2022-10-26T05:29:32.074Z,97017.16
2022-10-26T05:32:02.476Z,97022.27
2022-10-26T05:34:31.941Z,97019.22
2022-10-26T05:37:02.179Z,97022.77
2022-10-26T05:39:32.292Z,97023.46
2022-10-26T05:42:04.800Z,97026.11
2022-10-26T05:44:33.508Z,97030.05
2022-10-26T05:47:03.433Z,97031.83
2022-10-26T05:49:33.513Z,97036.87
2022-10-26T05:52:04.318Z,97036.43
2022-10-26T05:54:34.490Z,97036.29
2022-10-26T05:57:04.942Z,97030.77
2022-10-26T05:59:35.323Z,97030.59
2022-10-26T06:02:43.798Z,97033.04
2022-10-26T06:05:22.175Z,97029.04
2022-10-26T06:07:53.172Z,97032.21
2022-10-26T06:10:23.728Z,97033.35
2022-10-26T06:12:54.041Z,97035.04
2022-10-26T06:15:24.584Z,97035.99
2022-10-26T06:18:14.954Z,97037.16
2022-10-26T06:21:04.650Z,97033.23
2022-10-26T06:24:01.467Z,97031.48
2022-10-26T06:26:54.589Z,97029.23
2022-10-26T06:29:37.021Z,97034.11
2022-10-26T06:32:09.909Z,97033.23
2022-10-26T06:34:47.005Z,97035.17
2022-10-26T06:37:17.828Z,97038.95
2022-10-26T06:39:53.919Z,97033.70
2022-10-26T06:42:25.768Z,97041.27
2022-10-26T06:44:56.044Z,97044.80
2022-10-26T06:47:37.503Z,97046.50
2022-10-26T06:50:30.728Z,97042.79
2022-10-26T06:53:24.222Z,97040.97
2022-10-26T06:55:58.170Z,97041.64
2022-10-26T06:58:37.009Z,97044.06
2022-10-26T07:01:07.455Z,97043.11
2022-10-26T07:03:37.585Z,97040.00
2022-10-26T07:06:07.922Z,97040.87
2022-10-26T07:08:38.362Z,97042.05
2022-10-26T07:11:09.735Z,97042.31
2022-10-26T07:13:39.876Z,97040.44
2022-10-26T07:16:10.219Z,97037.70
2022-10-26T07:18:40.774Z,97038.15
2022-10-26T07:21:10.905Z,97037.73
2022-10-26T07:23:40.865Z,97039.77
2022-10-26T07:26:10.744Z,97040.17
2022-10-26T07:28:41.646Z,97041.42
2022-10-26T07:31:12.243Z,97037.66
2022-10-26T07:33:43.419Z,97039.52
2022-10-26T07:36:13.750Z,97042.54
2022-10-26T07:38:43.890Z,97038.77
2022-10-26T07:41:14.699Z,97039.35
2022-10-26T07:43:46.386Z,97041.45
2022-10-26T07:46:16.407Z,97036.91
2022-10-26T07:48:46.302Z,97036.89
2022-10-26T07:51:16.696Z,97039.24
2022-10-26T07:53:47.447Z,97039.35
2022-10-26T07:56:17.686Z,97040.25
2022-10-26T07:58:48.287Z,97037.41
2022-10-26T08:01:18.568Z,97040.18
2022-10-26T08:03:48.931Z,97034.69
2022-10-26T08:06:19.306Z,97036.30
2022-10-26T08:08:50.112Z,97037.70
2022-10-26T08:11:21.720Z,97037.89
2022-10-26T08:13:55.370Z,97035.90
2022-10-26T08:16:25.712Z,97031.71
2022-10-26T08:18:56.039Z,97023.90
2022-10-26T08:21:39.210Z,97023.64
2022-10-26T08:24:10.233Z,97023.64
2022-10-26T08:26:40.245Z,97021.46
2022-10-26T08:29:09.794Z,97019.30
2022-10-26T08:31:39.774Z,97012.33
2022-10-26T08:34:10.077Z,97013.55
2022-10-26T08:36:38.900Z,97013.05
2022-10-26T08:39:09.859Z,97013.84
2022-10-26T08:41:44.882Z,97017.60
2022-10-26T08:44:35.965Z,97018.41
2022-10-26T08:47:23.190Z,97021.17
2022-10-26T08:50:09.172Z,97022.42
2022-10-26T08:52:58.820Z,97021.86
2022-10-26T08:55:35.448Z,97022.05
2022-10-26T08:58:11.286Z,97021.48
2022-10-26T09:00:41.334Z,97021.41
2022-10-26T09:03:18.825Z,97023.77
2022-10-26T09:05:55.286Z,97022.83
2022-10-26T09:08:50.324Z,97024.42
2022-10-26T09:11:47.091Z,97017.30
2022-10-26T09:14:22.305Z,97020.55
2022-10-26T09:17:35.288Z,97017.18
2022-10-26T09:20:41.863Z,97019.25
2022-10-26T09:23:53.241Z,97023.17
2022-10-26T09:26:33.347Z,97022.66
2022-10-26T09:29:13.129Z,97021.34
2022-10-26T09:31:47.672Z,97022.55
2022-10-26T09:35:00.771Z,97020.36
2022-10-26T09:37:39.476Z,97018.75
2022-10-26T09:40:28.322Z,97017.30
2022-10-26T09:43:29.460Z,97012.33
2022-10-26T09:45:59.412Z,97018.17
2022-10-26T09:48:37.650Z,97019.27
2022-10-26T09:51:08.559Z,97022.15
2022-10-26T09:53:41.022Z,97027.20
2022-10-26T09:56:12.671Z,97027.77
2022-10-26T09:59:05.514Z,97026.09
2022-10-26T10:01:40.178Z,97025.25
2022-10-26T10:04:23.148Z,97027.55
2022-10-26T10:07:04.342Z,97026.77
2022-10-26T10:09:34.824Z,97026.04
2022-10-26T10:12:05.907Z,97022.39
2022-10-26T10:14:56.909Z,97021.52
2022-10-26T10:17:27.730Z,97021.19
2022-10-26T10:20:13.787Z,97020.61
2022-10-26T10:23:05.298Z,97016.37
2022-10-26T10:25:40.291Z,97014.21
2022-10-26T10:28:27.922Z,97014.90
2022-10-26T10:31:00.901Z,97010.59
2022-10-26T10:33:39.622Z,97013.56
2022-10-26T10:36:17.775Z,97010.56
2022-10-26T10:38:49.957Z,97010.33
2022-10-26T10:41:30.438Z,97009.45
2022-10-26T10:44:18.875Z,97006.77
2022-10-26T10:46:48.858Z,97011.10
2022-10-26T10:49:28.257Z,97013.19
2022-10-26T10:52:01.157Z,97013.53
2022-10-26T10:54:35.819Z,97010.39
2022-10-26T10:57:37.920Z,97011.58
2022-10-26T11:00:10.918Z,97014.24
2022-10-26T11:02:58.677Z,97016.81
2022-10-26T11:06:03.220Z,97017.90
2022-10-26T11:08:35.671Z,97023.30
2022-10-26T11:11:05.782Z,97020.44
2022-10-26T11:13:51.959Z,97019.27
2022-10-26T11:16:37.276Z,97021.95
2022-10-26T11:19:38.825Z,97023.02
2022-10-26T11:22:29.831Z,97023.65
2022-10-26T11:25:27.101Z,97022.23
2022-10-26T11:28:15.698Z,97022.95
2022-10-26T11:30:57.181Z,97019.59
2022-10-26T11:33:35.605Z,97021.14
2022-10-26T11:36:22.119Z,97019.16
2022-10-26T11:39:06.222Z,97023.30
2022-10-26T11:42:01.714Z,97025.33
2022-10-26T11:45:10.969Z,97024.78
2022-10-26T11:48:08.739Z,97031.85
2022-10-26T11:50:44.186Z,97041.66
2022-10-26T11:53:24.652Z,97046.00
2022-10-26T11:55:56.205Z,97048.31
2022-10-26T11:58:28.917Z,97045.27
2022-10-26T12:01:12.839Z,97047.64
2022-10-26T12:03:49.962Z,97043.83
2022-10-26T12:06:26.676Z,97049.63
2022-10-26T12:09:17.750Z,97051.82
2022-10-26T12:12:05.178Z,97050.06
2022-10-26T12:14:49.907Z,97048.59
2022-10-26T12:17:45.226Z,97048.25
2022-10-26T12:20:16.655Z,97040.98
2022-10-26T12:22:49.142Z,97040.23
2022-10-26T12:25:22.338Z,97044.48
2022-10-26T12:27:55.303Z,97038.70
2022-10-26T12:30:32.692Z,97036.91
2022-10-26T12:33:26.486Z,97039.16
2022-10-26T12:35:56.419Z,97036.60
2022-10-26T12:38:30.306Z,97035.73
2022-10-26T12:41:07.111Z,97037.02
2022-10-26T12:43:39.198Z,97043.11
2022-10-26T12:46:15.842Z,97049.13
2022-10-26T12:48:47.529Z,97050.61
2022-10-26T12:51:26.662Z,97047.35
2022-10-26T12:54:16.219Z,97050.64
2022-10-26T12:57:17.025Z,97052.02
2022-10-26T12:59:56.402Z,97053.55
2022-10-26T13:02:33.597Z,97050.70
2022-10-26T13:05:44.899Z,97051.47
2022-10-26T13:08:15.611Z,97051.11
2022-10-26T13:11:13.675Z,97052.67
2022-10-26T13:13:44.878Z,97051.46
2022-10-26T13:16:17.833Z,97050.69
2022-10-26T13:18:51.685Z,97051.44
2022-10-26T13:21:23.257Z,97048.30
2022-10-26T13:23:58.004Z,97050.40
2022-10-26T13:26:29.694Z,97051.77
2022-10-26T13:29:00.994Z,97056.85
2022-10-26T13:31:32.469Z,97057.33
2022-10-26T13:34:12.453Z,97058.07
2022-10-26T13:36:46.526Z,97058.58
2022-10-26T13:39:24.205Z,97061.02
2022-10-26T13:41:55.248Z,97056.30
2022-10-26T13:44:30.435Z,97063.52
2022-10-26T13:47:05.701Z,97066.14
2022-10-26T13:49:41.808Z,97062.53
2022-10-26T13:52:18.218Z,97062.77
2022-10-26T13:55:03.342Z,97065.91
2022-10-26T13:57:38.619Z,97064.89
2022-10-26T14:00:21.656Z,97066.58
2022-10-26T14:02:51.890Z,97068.21
2022-10-26T14:05:23.638Z,97068.34
2022-10-26T14:07:59.547Z,97073.91
2022-10-26T14:10:42.751Z,97072.02
2022-10-26T14:13:18.821Z,97077.45
2022-10-26T14:15:48.711Z,97078.45
2022-10-26T14:18:25.564Z,97082.86
2022-10-26T14:21:05.065Z,97085.70
2022-10-26T14:23:50.138Z,97090.39
2022-10-26T14:26:25.972Z,97087.35
2022-10-26T14:29:02.753Z,97093.92
2022-10-26T14:31:34.460Z,97095.14
2022-10-26T14:34:06.068Z,97098.02
2022-10-26T14:36:55.774Z,97101.84
2022-10-26T14:39:36.606Z,97108.80
2022-10-26T14:42:31.182Z,97112.46
2022-10-26T14:45:02.828Z,97110.90
2022-10-26T14:47:35.576Z,97110.39
2022-10-26T14:50:06.733Z,97108.41
2022-10-26T14:52:38.547Z,97113.11
2022-10-26T14:55:16.687Z,97111.52
2022-10-26T14:57:48.528Z,97112.47
2022-10-26T15:00:24.729Z,97113.58
2022-10-26T15:02:58.971Z,97115.51
2022-10-26T15:05:36.825Z,97124.91
2022-10-26T15:08:52.392Z,97124.86
2022-10-26T15:11:28.416Z,97130.13
2022-10-26T15:13:59.013Z,97133.48
2022-10-26T15:16:41.259Z,97133.32
2022-10-26T15:19:16.178Z,97137.09
2022-10-26T15:21:50.719Z,97138.60
2022-10-26T15:24:31.104Z,97143.38
2022-10-26T15:27:04.369Z,97148.19
2022-10-26T15:29:50.263Z,97149.11
2022-10-26T15:32:30.495Z,97154.00
2022-10-26T15:35:18.936Z,97154.69
2022-10-26T15:37:50.565Z,97158.30
2022-10-26T15:40:21.207Z,97162.89
2022-10-26T15:42:53.337Z,97167.81
2022-10-26T15:45:26.643Z,97169.02
2022-10-26T15:47:59.948Z,97172.73
2022-10-26T15:50:30.416Z,97169.04
2022-10-26T15:53:10.451Z,97176.23
2022-10-26T15:55:39.127Z,97179.86
2022-10-26T15:58:11.786Z,97179.80
2022-10-26T16:00:42.093Z,97180.30
2022-10-26T16:03:21.678Z,97184.27
2022-10-26T16:06:03.002Z,97188.30
2022-10-26T16:08:33.130Z,97189.69
2022-10-26T16:11:03.143Z,97187.20
2022-10-26T16:13:32.990Z,97187.55
2022-10-26T16:16:03.490Z,97191.09
2022-10-26T16:18:33.038Z,97195.82
2022-10-26T16:21:03.234Z,97192.67
2022-10-26T16:23:33.744Z,97201.83
2022-10-26T16:26:05.419Z,97197.02
2022-10-26T16:28:35.761Z,97199.59
2022-10-26T16:31:08.286Z,97201.08
2022-10-26T16:33:38.449Z,97201.63
2022-10-26T16:36:10.747Z,97201.23
2022-10-26T16:38:41.671Z,97204.44
2022-10-26T16:41:14.537Z,97208.61
2022-10-26T16:43:47.585Z,97208.80
2022-10-26T16:46:19.825Z,97208.54
2022-10-26T16:48:50.672Z,97205.94
2022-10-26T16:51:29.563Z,97205.42
2022-10-26T16:54:00.373Z,97209.15
2022-10-26T16:56:31.061Z,97204.06
2022-10-26T16:59:01.196Z,97206.34
2022-10-26T17:01:30.060Z,97206.29
2022-10-26T17:06:31.579Z,97209.41
2022-10-26T17:09:01.981Z,97210.12
2022-10-26T17:11:32.330Z,97209.20
2022-10-26T17:14:02.630Z,97210.08
2022-10-26T17:16:35.382Z,97213.78
2022-10-26T17:19:05.471Z,97214.80
2022-10-26T17:21:36.175Z,97215.73
2022-10-26T17:24:07.569Z,97221.65
2022-10-26T17:26:39.028Z,97218.09
2022-10-26T17:31:44.591Z,97223.52
2022-10-26T17:34:14.625Z,97221.64
2022-10-26T17:36:46.840Z,97226.84
2022-10-26T17:39:17.045Z,97230.02
2022-10-26T17:41:48.080Z,97227.63
2022-10-26T17:44:17.829Z,97233.89
2022-10-26T17:46:48.052Z,97235.33
2022-10-26T17:49:19.251Z,97240.99
2022-10-26T17:51:51.754Z,97243.55
2022-10-26T17:54:22.705Z,97243.06
2022-10-26T17:56:52.711Z,97244.16
2022-10-26T17:59:22.994Z,97244.54
2022-10-26T18:01:53.563Z,97250.42
2022-10-26T18:04:23.739Z,97255.59
2022-10-26T18:06:53.746Z,97257.70
2022-10-26T18:09:24.534Z,97259.98
2022-10-26T18:11:55.911Z,97255.90
2022-10-26T18:14:26.114Z,97259.80
2022-10-26T18:16:57.500Z,97254.63
2022-10-26T18:19:27.835Z,97254.39
2022-10-26T18:21:58.109Z,97258.94
2022-10-26T18:24:29.014Z,97261.73
2022-10-26T18:26:58.951Z,97263.46
2022-10-26T18:29:29.287Z,97265.21
2022-10-26T18:31:59.238Z,97262.84
2022-10-26T18:34:29.355Z,97268.42
2022-10-26T18:37:00.952Z,97271.52
2022-10-26T18:39:31.123Z,97280.21
2022-10-26T18:42:01.380Z,97278.23
2022-10-26T18:44:31.380Z,97283.33
2022-10-26T18:47:00.120Z,97284.66
2022-10-26T18:49:29.665Z,97292.65
2022-10-26T18:52:00.310Z,97287.86
2022-10-26T18:54:31.782Z,97294.38
2022-10-26T18:57:02.199Z,97294.77
2022-10-26T18:59:30.871Z,97300.70
2022-10-26T19:02:02.358Z,97303.23
2022-10-26T19:04:32.954Z,97309.91
2022-10-26T19:07:03.425Z,97313.65
2022-10-26T19:09:34.204Z,97316.67
2022-10-26T19:12:06.496Z,97315.90
2022-10-26T19:14:35.270Z,97322.13
2022-10-26T19:17:05.458Z,97327.68
2022-10-26T19:19:35.999Z,97328.05
2022-10-26T19:22:04.753Z,97328.13
2022-10-26T19:24:34.906Z,97328.77
2022-10-26T19:27:05.050Z,97333.59
2022-10-26T19:29:35.144Z,97339.33
2022-10-26T19:32:05.712Z,97338.05
2022-10-26T19:34:35.824Z,97337.54
2022-10-26T19:37:06.054Z,97342.28
2022-10-26T19:39:36.314Z,97350.48
2022-10-26T19:42:06.410Z,97350.59
2022-10-26T19:44:36.427Z,97356.28
2022-10-26T19:47:06.444Z,97357.55
2022-10-26T19:49:36.069Z,97355.62
2022-10-26T19:52:06.200Z,97359.58
2022-10-26T19:54:34.985Z,97365.08
2022-10-26T19:57:05.351Z,97371.72
2022-10-26T19:59:34.144Z,97374.80
2022-10-26T20:02:04.438Z,97381.42
2022-10-26T20:04:34.992Z,97376.88
2022-10-26T20:07:05.367Z,97374.65
2022-10-26T20:09:35.796Z,97378.56
2022-10-26T20:12:05.599Z,97377.17
2022-10-26T20:14:36.022Z,97380.59
2022-10-26T20:17:06.154Z,97378.27
2022-10-26T20:19:36.328Z,97383.05
2022-10-26T20:22:06.208Z,97390.95
2022-10-26T20:24:36.839Z,97389.59
2022-10-26T20:27:05.542Z,97390.87
2022-10-26T20:29:36.085Z,97396.14
2022-10-26T20:32:06.328Z,97396.88
2022-10-26T20:34:36.438Z,97399.63
2022-10-26T20:37:07.015Z,97396.55
2022-10-26T20:39:38.225Z,97400.06
2022-10-26T20:42:17.463Z,97400.62
2022-10-26T20:44:49.349Z,97403.96
2022-10-26T20:47:19.478Z,97406.10
2022-10-26T20:49:50.041Z,97402.50
2022-10-26T20:52:28.726Z,97400.17
2022-10-26T20:55:10.855Z,97405.86
2022-10-26T20:57:48.712Z,97403.71
2022-10-26T21:00:19.929Z,97399.86
2022-10-26T21:02:51.144Z,97401.67
2022-10-26T21:05:22.875Z,97395.97
2022-10-26T21:07:53.218Z,97398.02
2022-10-26T21:10:23.588Z,97397.34
2022-10-26T21:12:54.652Z,97398.36
2022-10-26T21:15:25.244Z,97399.94
2022-10-26T21:17:55.345Z,97402.64
2022-10-26T21:20:25.817Z,97402.09
2022-10-26T21:22:56.490Z,97402.57
2022-10-26T21:25:27.723Z,97400.46
2022-10-26T21:27:58.359Z,97402.95
2022-10-26T21:30:28.580Z,97404.53
2022-10-26T21:32:59.518Z,97403.77
2022-10-26T21:35:30.513Z,97401.56
2022-10-26T21:38:01.146Z,97399.80
2022-10-26T21:40:31.162Z,97400.36
2022-10-26T21:43:01.311Z,97410.00
2022-10-26T21:45:31.923Z,97408.98
2022-10-26T21:48:10.807Z,97406.40
2022-10-26T21:50:42.666Z,97407.45
2022-10-26T21:53:12.883Z,97411.17
2022-10-26T21:55:43.312Z,97404.83
2022-10-26T21:58:13.438Z,97403.31
2022-10-26T22:00:43.630Z,97403.85
2022-10-26T22:03:13.740Z,97404.64
2022-10-26T22:05:45.838Z,97404.07
2022-10-26T22:08:16.439Z,97401.73
2022-10-26T22:10:46.877Z,97403.29
2022-10-26T22:13:17.237Z,97403.73
2022-10-26T22:15:46.835Z,97403.14
2022-10-26T22:18:17.091Z,97405.26
2022-10-26T22:20:59.010Z,97405.53
2022-10-26T22:23:29.886Z,97403.80
2022-10-26T22:26:09.504Z,97399.82
2022-10-26T22:28:43.178Z,97398.91
2022-10-26T22:31:22.193Z,97403.30
2022-10-26T22:33:57.501Z,97402.93
2022-10-26T22:36:28.879Z,97404.29
2022-10-26T22:38:59.156Z,97401.02
2022-10-26T22:41:29.439Z,97400.90
2022-10-26T22:43:59.445Z,97402.23
2022-10-26T22:46:29.095Z,97403.24
2022-10-26T22:49:00.891Z,97402.38
2022-10-26T22:51:33.582Z,97406.59
2022-10-26T22:54:05.266Z,97406.02
2022-10-26T22:56:37.300Z,97407.34
2022-10-26T22:59:07.895Z,97406.11
2022-10-26T23:01:41.326Z,97407.83
2022-10-26T23:04:15.079Z,97401.41
2022-10-26T23:06:44.690Z,97401.95
2022-10-26T23:09:14.885Z,97404.74
2022-10-26T23:11:45.115Z,97402.69
2022-10-26T23:14:15.346Z,97404.54
2022-10-26T23:16:44.949Z,97401.45
2022-10-26T23:19:13.742Z,97399.93
2022-10-26T23:21:43.882Z,97401.55
2022-10-26T23:24:14.707Z,97401.48
2022-10-26T23:26:45.502Z,97401.91
2022-10-26T23:29:15.095Z,97401.58
2022-10-26T23:31:45.333Z,97403.42
2022-10-26T23:34:14.855Z,97402.16
2022-10-26T23:36:45.192Z,97409.42
2022-10-26T23:39:15.467Z,97413.39
2022-10-26T23:41:45.619Z,97415.86
2022-10-26T23:44:15.793Z,97417.11
2022-10-26T23:46:46.043Z,97419.40
2022-10-26T23:49:16.193Z,97422.69
2022-10-26T23:51:46.755Z,97417.54
2022-10-26T23:54:16.504Z,97419.30
2022-10-26T23:56:47.067Z,97424.89
2022-10-26T23:59:16.528Z,97423.70
